Richmond International Airport
KRIC : now visible

Airfield :











YOU CAN JOIN US ON...

 
LOGIN :

Register | Disclaimer

   EN    FR    IT 

 









Legend :    VFR   Marginal VFR   IFR   Intensive IFR   Very Intensive IFR
Visi :
Ceiling :
>= 8 km
>= 3000ft
5 to 8 km
1000 to 3000 ft
1500m to 5 km
500 to 1000 ft
800 to 1500m
200 to 500 ft
< 800m
< 200 ft
Symbols :   Thunderstorms  Fog  Heavy snow  Heavy precipitations  Wind > 20 kt







- Airport Elevation : 167 ft
- IATA code : RIC


KRIC - Richmond International

CURRENT METAR :
  • 210254Z 00000KT 10SM CLR 17/12 A3026 RMK AO2 SLP252 T01720122 53008

EXPIRED METARs :
  • 210154Z 00000KT 10SM CLR 17/12 A3025 RMK AO2 SLP249 T01720117
  • 210054Z 16003KT 10SM FEW350 18/11 A3025 RMK AO2 SLP247 T01780111

TAF KRIC
Valid from the 21 at 00:00 until the 22 at 00:00 UTC


202320Z 2100/2124 18005KT P6SM SKC
FM210600 21004KT P6SM SKC
FM212000 19004KT P6SM FEW200
No reported NOTAMs for that airfield.



MET'MAP, your aeronautical weather chart ! - Copyright ORBIFLY December 2007 - Disclaimer

ORBIFLY MET'MAP TEAM :

Programming & Development : Alexandra Zaïnal
Concept & Development : Baudouin d'Aumeries
Co-Development & Prog : Marc-Olivier Méhu
Technical & hardware support : Manuel Goepfert

Contact : metmap@orbifly.com




SOURCES & CREDITS :

   NOAA       Earth
Advisory